Time;durP1;ratioP1;P1;durP2;ratioP2;P2;SDS_P1;SDS_P2;PMS_P1;PMS_P2;Temp;Humidity;BMP_temperature;BMP_pressure;BME280_temperature;BME280_humidity;BME280_pressure;Samples;Min_cycle;Max_cycle;Signal;HPM_P1;HPM_P2
2021/09/20 00:02:14;;;;;;;25.35;13.13;;;;;;;11.90;80.87;101629.06;5084219;28;20051;-64
2021/09/20 00:04:40;;;;;;;25.10;12.48;;;;;;;11.91;81.23;101637.06;5081867;28;20486;-64
2021/09/20 00:07:05;;;;;;;26.58;13.50;;;;;;;11.84;81.82;101624.63;5083651;28;20371;-64
2021/09/20 00:09:32;;;;;;;24.95;13.25;;;;;;;11.82;82.06;101642.22;5082774;28;20068;-64
2021/09/20 00:11:57;;;;;;;26.63;14.02;;;;;;;11.89;81.56;101643.19;5082128;28;20024;-64
2021/09/20 00:14:23;;;;;;;25.13;13.45;;;;;;;11.82;81.66;101642.22;5084042;28;20024;-64
2021/09/20 00:16:48;;;;;;;26.02;13.68;;;;;;;11.90;81.16;101647.59;5081345;28;20025;-64
2021/09/20 00:19:14;;;;;;;25.98;13.70;;;;;;;11.91;81.55;101647.66;5084391;28;20052;-65
2021/09/20 00:21:39;;;;;;;27.75;13.73;;;;;;;11.89;81.12;101645.84;5081363;28;20017;-65
2021/09/20 00:24:05;;;;;;;26.80;13.63;;;;;;;11.82;80.88;101642.22;5083217;28;20085;-65
2021/09/20 00:26:30;;;;;;;26.10;13.50;;;;;;;11.78;82.18;101636.03;5082557;28;20032;-65
2021/09/20 00:28:55;;;;;;;26.02;13.90;;;;;;;11.76;81.65;101639.50;5082125;28;20085;-65
2021/09/20 00:31:21;;;;;;;27.08;14.05;;;;;;;11.62;82.51;101644.63;5084026;28;20055;-65
2021/09/20 00:33:46;;;;;;;25.98;13.60;;;;;;;11.50;83.49;101633.03;5080708;28;20028;-65
2021/09/20 00:36:11;;;;;;;26.92;13.75;;;;;;;11.52;83.00;101639.22;5084114;28;20120;-65
2021/09/20 00:38:37;;;;;;;26.10;13.55;;;;;;;11.43;83.74;101639.13;5081920;28;20035;-65
2021/09/20 00:41:03;;;;;;;26.92;14.07;;;;;;;11.37;84.07;101644.28;5082852;28;20481;-65
2021/09/20 00:43:28;;;;;;;25.98;13.60;;;;;;;11.29;83.94;101646.84;5082651;28;20463;-65
2021/09/20 00:45:54;;;;;;;27.02;14.43;;;;;;;11.31;83.40;101649.50;5081526;28;20463;-65
2021/09/20 00:48:19;;;;;;;27.05;13.70;;;;;;;11.16;84.43;101640.47;5083824;28;20515;-65
2021/09/20 00:50:44;;;;;;;26.85;14.15;;;;;;;11.14;84.48;101634.28;5080645;28;20044;-65
2021/09/20 00:53:10;;;;;;;26.20;13.68;;;;;;;11.13;84.49;101637.78;5083989;28;20028;-65
2021/09/20 00:55:35;;;;;;;26.10;13.60;;;;;;;11.14;83.77;101636.94;5081697;28;20047;-65
2021/09/20 00:58:01;;;;;;;25.75;13.82;;;;;;;11.07;85.52;101639.47;5082454;28;20055;-65
2021/09/20 01:00:27;;;;;;;27.00;13.10;;;;;;;11.09;84.27;101637.72;5082644;28;20075;-65
2021/09/20 01:02:52;;;;;;;27.70;13.90;;;;;;;11.13;84.23;101640.44;5081014;28;20068;-65
2021/09/20 01:05:17;;;;;;;26.25;13.90;;;;;;;11.05;85.19;101636.78;5084036;28;20032;-65
2021/09/20 01:07:43;;;;;;;26.38;13.20;;;;;;;10.98;85.60;101637.59;5080598;28;20111;-65
2021/09/20 01:10:10;;;;;;;27.25;13.73;;;;;;;10.95;85.44;101640.16;5083092;28;20152;-65
2021/09/20 01:12:35;;;;;;;27.88;14.10;;;;;;;11.04;85.27;101639.41;5081731;28;20042;-65
2021/09/20 01:15:01;;;;;;;28.38;14.52;;;;;;;10.93;84.82;101639.25;5082045;28;20519;-66
2021/09/20 01:17:26;;;;;;;26.33;14.02;;;;;;;10.88;85.31;101640.91;5082666;28;20055;-65
2021/09/20 01:19:52;;;;;;;26.55;14.07;;;;;;;10.93;86.42;101640.13;5080855;28;20024;-63
2021/09/20 01:22:20;;;;;;;27.15;14.48;;;;;;;10.94;85.83;101641.03;5083961;28;20383;-63
2021/09/20 01:24:46;;;;;;;28.98;14.63;;;;;;;10.85;86.21;101636.50;5082768;28;20028;-63
2021/09/20 01:27:14;;;;;;;26.45;14.15;;;;;;;10.83;86.26;101638.22;5087453;28;20028;-63
2021/09/20 01:29:39;;;;;;;26.80;14.15;;;;;;;10.84;86.67;101644.41;5084630;28;20025;-64
2021/09/20 01:32:06;;;;;;;27.80;14.13;;;;;;;10.85;85.68;101647.09;5086251;28;20065;-63
2021/09/20 01:34:32;;;;;;;26.92;14.30;;;;;;;10.74;85.80;101641.59;5085756;28;20481;-63
2021/09/20 01:36:58;;;;;;;27.15;14.45;;;;;;;10.70;86.52;101642.41;5067038;28;20486;-63
2021/09/20 01:39:26;;;;;;;28.42;14.35;;;;;;;10.67;86.73;101647.66;5087023;28;20020;-63
2021/09/20 01:41:54;;;;;;;29.27;14.35;;;;;;;10.73;86.42;101649.50;5084553;28;20021;-63
2021/09/20 01:44:20;;;;;;;28.80;14.90;;;;;;;10.71;86.41;101643.31;5087258;28;20016;-63
2021/09/20 01:46:51;;;;;;;27.20;14.90;;;;;;;10.78;86.83;101654.00;5083642;28;20025;-64
2021/09/20 01:49:17;;;;;;;27.58;15.30;;;;;;;10.86;86.23;101645.31;5083713;28;20028;-63
2021/09/20 01:51:43;;;;;;;27.52;14.65;;;;;;;10.90;85.89;101652.44;5087165;28;20024;-63
2021/09/20 01:54:10;;;;;;;28.10;14.75;;;;;;;10.93;86.67;101642.78;5084276;28;20059;-63
2021/09/20 01:56:36;;;;;;;27.63;14.80;;;;;;;10.96;86.03;101648.13;5085882;28;20476;-63
2021/09/20 01:59:02;;;;;;;27.80;15.32;;;;;;;10.91;86.14;101643.66;5085034;28;20036;-64
2021/09/20 02:01:28;;;;;;;28.35;15.13;;;;;;;10.94;86.42;101643.69;5084513;28;20468;-64
2021/09/20 02:03:54;;;;;;;28.45;15.75;;;;;;;10.95;86.36;101650.75;5086519;28;20085;-64
2021/09/20 02:06:20;;;;;;;28.92;15.90;;;;;;;11.03;85.90;101653.53;5083344;28;20024;-63
2021/09/20 02:08:46;;;;;;;27.38;15.30;;;;;;;11.08;85.56;101660.66;5086904;28;20038;-64
2021/09/20 02:11:12;;;;;;;27.92;15.00;;;;;;;11.08;84.78;101660.66;5083933;28;20016;-63
2021/09/20 02:13:38;;;;;;;26.83;15.07;;;;;;;11.08;85.27;101667.69;5085815;28;20044;-63
2021/09/20 02:16:04;;;;;;;27.50;15.52;;;;;;;11.08;84.67;101660.66;5084738;28;20028;-64
2021/09/20 02:18:29;;;;;;;28.52;15.13;;;;;;;11.09;85.63;101656.25;5084467;28;20032;-63
2021/09/20 02:20:55;;;;;;;27.65;14.90;;;;;;;11.09;84.79;101659.78;5085908;28;20020;-63
2021/09/20 02:23:20;;;;;;;28.83;15.57;;;;;;;10.95;84.62;101645.44;5082890;28;20032;-64
2021/09/20 02:25:46;;;;;;;27.63;15.73;;;;;;;10.88;85.20;101652.41;5086704;28;20028;-63
2021/09/20 02:28:12;;;;;;;27.52;14.82;;;;;;;10.76;85.56;101661.03;5083282;28;20483;-63
2021/09/20 02:30:37;;;;;;;29.65;15.93;;;;;;;10.64;87.20;101666.13;5085385;28;20040;-64
2021/09/20 02:33:03;;;;;;;28.17;15.15;;;;;;;10.50;86.64;101668.53;5084427;28;20020;-63
2021/09/20 02:35:29;;;;;;;27.58;14.93;;;;;;;10.44;87.00;101669.31;5083574;28;20036;-64
2021/09/20 02:37:54;;;;;;;27.92;15.50;;;;;;;10.29;87.23;101667.25;5085661;28;20030;-63
2021/09/20 02:40:20;;;;;;;27.98;15.63;;;;;;;10.20;88.58;101668.81;5082680;28;20025;-63
2021/09/20 02:42:45;;;;;;;28.25;15.32;;;;;;;10.09;89.24;101666.88;5082535;28;20124;-63
2021/09/20 02:45:12;;;;;;;28.02;15.30;;;;;;;10.10;88.71;101667.75;5085627;28;20081;-63
2021/09/20 02:47:38;;;;;;;28.42;15.38;;;;;;;10.05;88.71;101669.44;5083586;28;20020;-63
2021/09/20 02:50:06;;;;;;;28.52;15.07;;;;;;;10.00;89.74;101665.78;5084407;28;20020;-63
2021/09/20 02:52:31;;;;;;;29.13;15.38;;;;;;;9.92;90.30;101669.16;5084495;28;20028;-63
2021/09/20 02:54:57;;;;;;;28.05;15.55;;;;;;;9.83;90.38;101668.06;5083307;28;20027;-63
2021/09/20 02:57:22;;;;;;;29.33;16.20;;;;;;;9.77;91.91;101663.56;5085443;28;20437;-63
2021/09/20 02:59:47;;;;;;;29.05;16.85;;;;;;;9.75;92.09;101675.84;5082503;28;20120;-64
2021/09/20 03:02:13;;;;;;;29.63;16.10;;;;;;;9.69;92.07;101687.16;5085141;28;20364;-63
2021/09/20 03:04:38;;;;;;;28.77;15.85;;;;;;;9.71;91.82;101680.19;5083101;28;20046;-63
2021/09/20 03:07:03;;;;;;;28.83;16.23;;;;;;;9.70;91.72;101683.69;5083965;28;20487;-64
2021/09/20 03:09:29;;;;;;;28.80;16.35;;;;;;;9.69;91.60;101687.16;5084342;28;20052;-63
2021/09/20 03:11:54;;;;;;;28.55;15.68;;;;;;;9.62;91.63;101684.38;5082747;28;20040;-62
2021/09/20 03:14:19;;;;;;;29.67;16.67;;;;;;;9.56;91.53;101683.38;5085836;28;20066;-64
2021/09/20 03:16:45;;;;;;;28.42;16.08;;;;;;;9.54;92.05;101694.78;5081986;28;20024;-63
2021/09/20 03:19:10;;;;;;;29.55;15.80;;;;;;;9.47;92.35;101693.72;5085171;28;20036;-63
2021/09/20 03:21:36;;;;;;;29.23;15.95;;;;;;;9.43;92.77;101705.94;5083545;28;20096;-63
2021/09/20 03:24:02;;;;;;;29.10;16.38;;;;;;;9.50;92.29;101707.00;5083642;28;20028;-64
2021/09/20 03:26:28;;;;;;;29.00;16.48;;;;;;;9.39;92.75;101705.84;5084326;28;20564;-63
2021/09/20 03:28:53;;;;;;;29.45;16.50;;;;;;;9.38;92.68;101712.00;5082344;28;20024;-63
2021/09/20 03:31:18;;;;;;;29.73;16.90;;;;;;;9.40;92.72;101708.53;5085300;28;20028;-64
2021/09/20 03:33:43;;;;;;;30.60;16.35;;;;;;;9.39;92.09;101704.13;5081947;28;20047;-63
2021/09/20 03:36:09;;;;;;;29.77;16.33;;;;;;;9.36;92.54;101704.06;5084194;28;20033;-63
2021/09/20 03:38:34;;;;;;;30.77;17.10;;;;;;;9.29;92.69;101707.41;5082856;28;20028;-63
2021/09/20 03:40:59;;;;;;;30.00;16.65;;;;;;;9.25;93.14;101706.44;5083037;28;20025;-63
2021/09/20 03:43:25;;;;;;;30.17;17.10;;;;;;;9.23;93.73;101709.88;5084351;28;20032;-64
2021/09/20 03:45:50;;;;;;;30.55;18.05;;;;;;;9.14;93.95;101702.63;5081260;28;20021;-63
2021/09/20 03:48:15;;;;;;;30.67;17.60;;;;;;;9.16;93.86;101705.31;5081259;28;20033;-63
2021/09/20 03:50:41;;;;;;;32.05;18.60;;;;;;;9.11;94.80;101701.69;5084094;28;20042;-64
2021/09/20 03:53:06;;;;;;;31.42;18.10;;;;;;;9.03;95.38;101701.50;5082632;28;20390;-64
2021/09/20 03:55:31;;;;;;;32.00;17.92;;;;;;;9.00;95.11;101704.97;5082867;28;20024;-64
2021/09/20 03:57:56;;;;;;;31.65;18.48;;;;;;;8.94;95.80;101711.81;5083839;28;20024;-64
2021/09/20 04:00:22;;;;;;;32.58;18.52;;;;;;;8.93;96.87;101710.94;5081371;28;20070;-64
2021/09/20 04:02:47;;;;;;;32.92;19.20;;;;;;;8.89;96.70;101711.72;5084754;28;20028;-63
2021/09/20 04:05:12;;;;;;;32.75;19.33;;;;;;;8.88;96.34;101712.56;5063070;28;20028;-64
2021/09/20 04:07:39;;;;;;;31.67;18.77;;;;;;;8.81;97.25;101718.53;5083705;28;20032;-63
2021/09/20 04:10:06;;;;;;;31.25;18.35;;;;;;;8.80;97.37;101711.50;5082458;28;20021;-63
2021/09/20 04:12:31;;;;;;;33.08;18.80;;;;;;;8.79;97.90;101713.22;5082416;28;20059;-64
2021/09/20 04:14:56;;;;;;;31.92;18.20;;;;;;;8.82;97.58;101713.28;5083956;28;20222;-63
2021/09/20 04:17:22;;;;;;;33.17;18.58;;;;;;;8.79;97.42;101720.25;5081124;28;20043;-64
2021/09/20 04:19:47;;;;;;;32.97;18.70;;;;;;;8.75;98.85;101719.25;5084441;28;20036;-63
2021/09/20 04:22:12;;;;;;;32.58;19.50;;;;;;;8.71;98.99;101720.94;5081379;28;20017;-64
2021/09/20 04:24:38;;;;;;;31.95;18.63;;;;;;;8.70;98.79;101723.53;5065132;28;20028;-64
2021/09/20 04:27:03;;;;;;;31.77;18.40;;;;;;;8.71;98.58;101718.28;5082841;28;20031;-63
2021/09/20 04:29:29;;;;;;;32.78;18.55;;;;;;;8.70;98.38;101723.53;5082161;28;20415;-63
2021/09/20 04:31:54;;;;;;;33.35;19.50;;;;;;;8.65;99.14;101723.41;5084021;28;20375;-63
2021/09/20 04:34:19;;;;;;;32.97;19.13;;;;;;;8.60;99.22;101734.69;5081020;28;20039;-64
2021/09/20 04:36:45;;;;;;;32.42;18.20;;;;;;;8.60;99.68;101738.19;5083978;28;20031;-64
2021/09/20 04:39:11;;;;;;;32.45;19.33;;;;;;;8.57;99.56;101740.75;5081371;28;20066;-63
2021/09/20 04:41:37;;;;;;;31.60;18.17;;;;;;;8.60;99.17;101750.50;5083005;28;20040;-63
2021/09/20 04:44:02;;;;;;;32.30;18.33;;;;;;;8.60;98.62;101754.00;5082765;28;20108;-64
2021/09/20 04:46:28;;;;;;;31.77;18.05;;;;;;;8.58;98.17;101761.00;5081676;28;20463;-63
2021/09/20 04:48:53;;;;;;;31.42;18.17;;;;;;;8.51;98.36;101761.69;5083904;28;20378;-63
2021/09/20 04:51:18;;;;;;;32.58;18.02;;;;;;;8.50;98.85;101765.16;5080663;28;20383;-65
2021/09/20 04:53:43;;;;;;;31.60;17.65;;;;;;;8.49;98.00;101771.28;5083749;28;20024;-65
2021/09/20 04:56:09;;;;;;;32.97;17.95;;;;;;;8.42;98.20;101771.91;5081892;28;20383;-65
2021/09/20 04:58:34;;;;;;;34.60;18.45;;;;;;;8.43;98.84;101769.34;5082732;28;20068;-65
2021/09/20 05:00:59;;;;;;;31.45;17.73;;;;;;;8.45;98.39;101769.44;5068572;28;20409;-64
2021/09/20 05:03:25;;;;;;;32.80;17.92;;;;;;;8.39;98.53;101772.75;5085187;28;20402;-65
2021/09/20 05:05:50;;;;;;;33.20;18.40;;;;;;;8.40;99.70;101777.16;5087907;28;20035;-65
2021/09/20 05:08:17;;;;;;;32.72;17.30;;;;;;;8.37;99.72;101775.34;5084586;28;20036;-65
2021/09/20 05:10:43;;;;;;;32.22;18.17;;;;;;;8.34;99.31;101774.34;5087225;28;20028;-64
2021/09/20 05:13:08;;;;;;;31.27;17.63;;;;;;;8.32;99.83;101771.66;5085329;28;20027;-65
2021/09/20 05:15:33;;;;;;;31.55;17.02;;;;;;;8.30;98.80;101772.47;5086287;28;20070;-64
2021/09/20 05:17:59;;;;;;;30.00;17.10;;;;;;;8.27;99.41;101762.75;5086657;28;20107;-65
2021/09/20 05:20:24;;;;;;;42.33;30.45;;;;;;;8.24;99.87;101777.56;5084612;28;20092;-64
2021/09/20 05:22:50;;;;;;;31.17;17.80;;;;;;;8.21;100.00;101775.72;5087947;28;20031;-66
2021/09/20 05:25:16;;;;;;;30.95;17.13;;;;;;;8.18;100.00;101773.00;5089234;28;20032;-67
2021/09/20 05:27:42;;;;;;;31.40;17.65;;;;;;;8.22;100.00;101782.78;5089813;28;20024;-63
2021/09/20 05:30:09;;;;;;;32.25;17.85;;;;;;;8.28;99.54;101779.44;5089053;28;20395;-63
2021/09/20 05:32:38;;;;;;;31.35;16.75;;;;;;;8.23;99.49;101781.97;5091494;28;20036;-65
2021/09/20 05:35:04;;;;;;;31.98;17.85;;;;;;;8.27;99.95;101777.66;5089189;28;20430;-66
2021/09/20 05:37:29;;;;;;;32.72;17.65;;;;;;;8.28;99.88;101784.72;5088835;28;20028;-65
2021/09/20 05:39:55;;;;;;;31.67;17.05;;;;;;;8.28;99.09;101789.97;5088876;28;20019;-65
2021/09/20 05:42:20;;;;;;;31.88;17.35;;;;;;;8.31;99.11;101785.69;5088105;28;20095;-64
2021/09/20 05:44:46;;;;;;;37.17;21.77;;;;;;;8.28;99.04;101790.88;5091870;28;20494;-66
2021/09/20 05:47:14;;;;;;;30.20;17.00;;;;;;;8.40;98.50;101792.97;5090678;28;20023;-65
2021/09/20 05:49:40;;;;;;;33.13;18.25;;;;;;;8.50;98.02;101796.78;5090025;28;20031;-63
2021/09/20 05:52:05;;;;;;;31.40;17.83;;;;;;;8.58;97.09;101790.00;5090656;28;20099;-63
2021/09/20 05:54:32;;;;;;;31.90;17.67;;;;;;;8.61;97.31;101795.34;5088506;28;20029;-65
2021/09/20 05:56:57;;;;;;;30.23;17.25;;;;;;;8.66;97.51;101793.72;5091305;28;20061;-65
2021/09/20 05:59:22;;;;;;;30.48;17.15;;;;;;;8.70;96.69;101794.72;5092726;28;20047;-63
2021/09/20 06:01:48;;;;;;;31.83;17.60;;;;;;;8.73;95.91;101794.78;5090966;28;20054;-65
2021/09/20 06:04:14;;;;;;;32.33;17.65;;;;;;;8.77;96.20;101801.06;5091860;28;20028;-65
2021/09/20 06:06:39;;;;;;;31.83;17.65;;;;;;;8.88;95.36;101799.56;5071950;28;20101;-63
2021/09/20 06:09:05;;;;;;;31.60;17.20;;;;;;;8.90;95.09;101804.03;5070965;28;20063;-64
2021/09/20 06:11:33;;;;;;;30.73;17.52;;;;;;;8.92;96.08;101806.72;5088263;28;20476;-63
2021/09/20 06:13:59;;;;;;;31.52;17.70;;;;;;;8.96;95.72;101803.31;5090780;28;20031;-64
2021/09/20 06:16:24;;;;;;;34.08;18.60;;;;;;;9.00;94.19;101805.19;5072556;28;20016;-65
2021/09/20 06:18:50;;;;;;;31.80;18.35;;;;;;;9.02;95.19;101802.59;5087766;28;20535;-67
2021/09/20 06:21:15;;;;;;;32.13;18.17;;;;;;;9.04;94.75;101801.78;5089265;28;20406;-64
2021/09/20 06:23:41;;;;;;;33.00;18.50;;;;;;;9.06;94.94;101807.97;5088462;28;20115;-65
2021/09/20 06:26:06;;;;;;;32.40;18.75;;;;;;;9.13;94.82;101802.84;5090021;28;20024;-64
2021/09/20 06:28:34;;;;;;;31.90;18.90;;;;;;;9.15;94.94;101809.94;5073623;28;20111;-63
2021/09/20 06:31:02;;;;;;;32.28;18.85;;;;;;;9.21;94.48;101803.94;5088200;28;20020;-66
2021/09/20 06:33:32;;;;;;;32.85;19.10;;;;;;;9.26;93.44;101812.84;5089109;28;20491;-65
2021/09/20 06:35:58;;;;;;;31.55;19.25;;;;;;;9.30;93.69;101806.81;5088610;28;20493;-64
2021/09/20 06:38:23;;;;;;;32.70;18.90;;;;;;;9.36;93.46;101813.97;5089925;28;20031;-65
2021/09/20 06:40:49;;;;;;;32.78;19.48;;;;;;;9.41;91.93;101815.88;5092218;28;20032;-64
2021/09/20 06:43:15;;;;;;;32.75;19.40;;;;;;;9.44;91.90;101823.00;5086036;28;20383;-64
2021/09/20 06:45:40;;;;;;;32.08;19.13;;;;;;;9.56;92.13;101825.03;5087602;28;20024;-62
2021/09/20 06:48:05;;;;;;;33.67;19.25;;;;;;;9.61;92.66;101826.06;5094078;28;20115;-62
2021/09/20 06:50:31;;;;;;;33.22;19.42;;;;;;;9.67;92.11;101828.81;5092253;28;20429;-63
2021/09/20 06:52:56;;;;;;;34.15;20.92;;;;;;;9.77;91.45;101830.81;5070349;28;20013;-65
2021/09/20 06:55:22;;;;;;;33.17;20.42;;;;;;;9.81;89.88;101834.41;5071862;28;20024;-65
2021/09/20 06:57:47;;;;;;;34.95;19.83;;;;;;;9.88;88.59;101828.41;5088414;28;20027;-66
2021/09/20 07:00:14;;;;;;;34.85;21.52;;;;;;;9.91;89.87;101833.75;5068514;28;20097;-62
2021/09/20 07:02:40;;;;;;;36.65;21.88;;;;;;;10.03;90.10;101825.25;5089759;28;20063;-62
2021/09/20 07:05:07;;;;;;;33.58;20.25;;;;;;;10.08;88.67;101828.88;5091046;28;20032;-63
2021/09/20 07:07:32;;;;;;;35.50;20.70;;;;;;;10.19;89.80;101833.50;5087175;28;20020;-63
2021/09/20 07:09:57;;;;;;;33.55;20.10;;;;;;;10.23;88.91;101835.34;5088177;28;20077;-63
2021/09/20 07:12:23;;;;;;;33.90;19.60;;;;;;;10.27;88.45;101832.81;5090413;28;20168;-63
2021/09/20 07:14:48;;;;;;;33.42;19.83;;;;;;;10.36;87.03;101840.06;5087362;28;20093;-63
2021/09/20 07:17:13;;;;;;;33.20;20.38;;;;;;;10.43;86.33;101841.97;5089830;28;20039;-63
2021/09/20 07:19:39;;;;;;;32.90;19.40;;;;;;;10.54;85.90;101833.38;5065826;28;20043;-64
2021/09/20 07:22:04;;;;;;;31.63;19.35;;;;;;;10.61;85.85;101841.44;5085558;28;20115;-64
2021/09/20 07:24:29;;;;;;;31.48;18.17;;;;;;;10.63;84.33;101833.59;5086490;28;20031;-64
2021/09/20 07:26:55;;;;;;;31.88;19.45;;;;;;;10.64;84.87;101837.97;5087585;28;20015;-63
2021/09/20 07:29:20;;;;;;;31.58;18.98;;;;;;;10.68;84.22;101842.47;5084207;28;20028;-63
2021/09/20 07:31:45;;;;;;;33.50;20.42;;;;;;;10.72;84.76;101848.75;5083085;28;20028;-64
2021/09/20 07:34:11;;;;;;;32.15;19.65;;;;;;;10.74;84.78;101847.00;5082350;28;20029;-64
2021/09/20 07:36:37;;;;;;;31.92;18.83;;;;;;;10.77;83.36;101850.59;5084340;28;20523;-64
2021/09/20 07:39:03;;;;;;;31.80;18.48;;;;;;;10.90;84.92;101857.00;5081084;28;20103;-64
2021/09/20 07:41:30;;;;;;;31.98;19.23;;;;;;;10.94;83.86;101856.22;5081090;28;20025;-64
2021/09/20 07:43:55;;;;;;;32.63;20.02;;;;;;;10.95;81.78;101862.38;5084125;28;20032;-64
2021/09/20 07:46:22;;;;;;;32.60;19.83;;;;;;;11.03;82.60;101855.50;5082110;28;20016;-64
2021/09/20 07:48:48;;;;;;;32.28;19.48;;;;;;;11.14;82.80;101864.53;5083177;28;20108;-64
2021/09/20 07:51:15;;;;;;;33.22;20.23;;;;;;;11.21;82.43;101860.22;5083580;28;20092;-64
2021/09/20 07:53:40;;;;;;;32.47;20.48;;;;;;;11.23;81.19;101862.91;5082431;28;20021;-64
2021/09/20 07:56:05;;;;;;;32.65;20.13;;;;;;;11.29;82.80;101868.31;5065769;28;20364;-64
2021/09/20 07:58:31;;;;;;;33.10;20.80;;;;;;;11.31;80.45;101870.13;5081249;28;20127;-64
2021/09/20 08:00:58;;;;;;;31.33;19.60;;;;;;;11.38;80.28;101872.88;5083989;28;20028;-64
2021/09/20 08:03:23;;;;;;;33.55;20.30;;;;;;;11.38;80.52;101873.75;5082047;28;20054;-64
2021/09/20 08:05:49;;;;;;;34.42;20.00;;;;;;;11.48;80.34;101881.00;5083298;28;20017;-64
2021/09/20 08:08:14;;;;;;;32.83;20.00;;;;;;;11.57;78.94;101876.72;5083152;28;20070;-64
2021/09/20 08:10:39;;;;;;;32.78;20.42;;;;;;;11.69;79.89;101885.78;5081891;28;20154;-65
2021/09/20 08:13:08;;;;;;;31.35;19.80;;;;;;;11.86;79.47;101888.66;5086989;28;20466;-64
2021/09/20 08:15:34;;;;;;;33.22;20.52;;;;;;;12.06;79.52;101888.13;5086649;28;20027;-64
2021/09/20 08:17:59;;;;;;;32.22;20.50;;;;;;;12.27;77.12;101879.56;5084648;28;20467;-65
2021/09/20 08:20:25;;;;;;;34.25;20.17;;;;;;;12.45;77.19;101889.56;5085673;28;20027;-66
2021/09/20 08:22:52;;;;;;;32.90;20.60;;;;;;;12.53;75.59;101889.66;5068400;28;20025;-65
2021/09/20 08:25:22;;;;;;;34.63;20.13;;;;;;;12.65;74.32;101896.88;5087996;28;20028;-64
2021/09/20 08:27:48;;;;;;;31.27;19.27;;;;;;;12.85;74.83;101891.81;5086227;28;20035;-65
2021/09/20 08:30:14;;;;;;;31.90;20.02;;;;;;;13.03;73.33;101892.03;5086885;28;20024;-64
2021/09/20 08:32:40;;;;;;;33.70;19.88;;;;;;;13.19;73.78;101893.06;5087507;28;20110;-64
2021/09/20 08:35:06;;;;;;;31.23;19.63;;;;;;;13.28;72.71;101896.66;5086054;28;20099;-65
2021/09/20 08:37:31;;;;;;;32.05;20.23;;;;;;;13.38;73.19;101898.56;5083981;28;20036;-65
2021/09/20 08:39:57;;;;;;;32.53;20.02;;;;;;;13.44;72.02;101906.63;5071599;28;20032;-64
2021/09/20 08:42:22;;;;;;;31.33;19.65;;;;;;;13.52;71.60;101901.38;5082041;28;20024;-64
2021/09/20 08:44:48;;;;;;;31.30;19.70;;;;;;;13.96;72.15;101906.16;5079558;28;20034;-64
2021/09/20 08:47:15;;;;;;;30.75;19.38;;;;;;;14.54;68.21;101904.72;5088879;28;20103;-65
2021/09/20 08:49:50;;;;;;;29.77;18.13;;;;;;;15.03;66.67;101915.59;5084950;28;20029;-63
2021/09/20 08:52:16;;;;;;;30.52;18.38;;;;;;;15.46;64.46;101910.31;5086203;28;20028;-64
2021/09/20 08:54:42;;;;;;;31.67;18.33;;;;;;;15.44;62.50;101911.22;5088855;28;20377;-64
2021/09/20 08:57:09;;;;;;;29.92;17.90;;;;;;;15.32;64.23;101923.66;5084289;28;20028;-63
2021/09/20 08:59:34;;;;;;;30.50;18.48;;;;;;;15.52;65.31;101920.09;5086427;28;20440;-63
2021/09/20 09:02:00;;;;;;;29.88;18.10;;;;;;;16.12;62.19;101925.47;5089174;28;20016;-65
2021/09/20 09:04:32;;;;;;;31.23;17.75;;;;;;;16.76;60.65;101925.28;5085362;28;20016;-65
2021/09/20 09:07:09;;;;;;;28.90;16.98;;;;;;;17.55;59.61;101931.09;5085651;28;20278;-66
2021/09/20 09:09:37;;;;;;;28.58;16.65;;;;;;;18.08;56.66;101923.53;5087229;28;20027;-64
2021/09/20 09:12:21;;;;;;;28.67;17.08;;;;;;;18.63;56.64;101935.44;5085830;28;20096;-63
2021/09/20 09:14:50;;;;;;;28.70;17.02;;;;;;;19.01;52.49;101936.75;5087056;28;20467;-66
2021/09/20 09:17:23;;;;;;;28.17;16.17;;;;;;;19.47;51.78;101933.41;5085101;28;20099;-66
2021/09/20 09:19:55;;;;;;;27.88;16.33;;;;;;;19.67;51.04;101933.09;5083369;28;20024;-65
2021/09/20 09:22:23;;;;;;;29.50;16.27;;;;;;;19.75;49.71;101943.69;5083623;28;20024;-62
2021/09/20 09:25:01;;;;;;;26.55;15.15;;;;;;;20.13;50.07;101941.28;5083251;28;20032;-62
2021/09/20 09:27:27;;;;;;;27.58;15.48;;;;;;;20.41;47.42;101938.97;5086279;28;20024;-64
2021/09/20 09:30:13;;;;;;;27.75;15.57;;;;;;;20.73;48.30;101946.38;5084614;28;20021;-64
2021/09/20 09:32:40;;;;;;;26.77;15.32;;;;;;;20.86;45.45;101944.34;5087472;28;20051;-65
2021/09/20 09:35:09;;;;;;;27.90;15.18;;;;;;;21.16;45.03;101939.22;5083403;28;20021;-66
2021/09/20 09:37:37;;;;;;;29.42;15.63;;;;;;;21.55;43.96;101941.94;5084266;28;20047;-66
2021/09/20 09:40:16;;;;;;;27.80;15.00;;;;;;;21.92;42.17;101950.88;5087520;28;20016;-64
2021/09/20 09:42:42;;;;;;;27.02;14.77;;;;;;;22.35;41.49;101947.06;5084420;28;20024;-67
2021/09/20 09:45:25;;;;;;;26.08;14.48;;;;;;;22.63;42.20;101954.38;5086536;28;20028;-66
2021/09/20 09:48:06;;;;;;;27.00;15.38;;;;;;;22.87;42.79;101952.78;5083818;28;20028;-66
2021/09/20 09:50:31;;;;;;;26.98;15.45;;;;;;;22.91;40.06;101946.34;5085718;28;20024;-65
2021/09/20 09:52:57;;;;;;;26.48;15.43;;;;;;;23.02;40.00;101947.84;5084685;28;20106;-65
2021/09/20 09:55:24;;;;;;;28.40;15.52;;;;;;;22.97;40.13;101948.88;5086477;28;20463;-65
2021/09/20 09:57:50;;;;;;;25.55;15.00;;;;;;;23.08;39.80;101955.75;5083695;28;20031;-64
2021/09/20 10:00:19;;;;;;;27.15;15.63;;;;;;;23.87;39.21;101953.28;5086811;28;20044;-66
2021/09/20 10:02:49;;;;;;;26.05;13.77;;;;;;;24.26;36.30;101952.81;5083469;28;20111;-65
2021/09/20 10:05:22;;;;;;;26.58;14.45;;;;;;;24.54;36.46;101948.19;5083560;28;20027;-67
2021/09/20 10:07:53;;;;;;;25.15;13.00;;;;;;;24.64;35.55;101959.56;5083559;28;20036;-67
2021/09/20 10:10:20;;;;;;;24.83;13.15;;;;;;;24.45;34.49;101956.63;5087653;28;20024;-67
2021/09/20 10:12:48;;;;;;;25.73;13.45;;;;;;;24.32;35.39;101956.19;5083236;28;20028;-67
2021/09/20 10:15:16;;;;;;;24.27;12.82;;;;;;;24.92;34.77;101952.25;5086577;28;20056;-68
2021/09/20 10:17:42;;;;;;;24.55;13.18;;;;;;;24.92;34.10;101950.41;5083434;28;20043;-67
2021/09/20 10:20:12;;;;;;;24.42;13.18;;;;;;;24.45;34.19;101947.63;5084065;28;20086;-67
2021/09/20 10:22:37;;;;;;;25.10;13.85;;;;;;;24.16;34.12;101939.66;5085861;28;20038;-67
2021/09/20 10:25:05;;;;;;;24.08;12.95;;;;;;;24.39;34.63;101940.63;5084419;28;20372;-67
2021/09/20 10:27:31;;;;;;;27.15;14.02;;;;;;;24.86;34.97;101934.44;5084781;28;20024;-68
2021/09/20 10:30:08;;;;;;;23.80;12.75;;;;;;;24.85;34.84;101938.06;5085286;28;20042;-68
2021/09/20 10:32:34;;;;;;;24.40;13.77;;;;;;;25.32;33.92;101939.88;5085373;28;20107;-67
2021/09/20 10:35:30;;;;;;;24.48;13.82;;;;;;;26.26;34.03;101933.22;5084611;28;20031;-68
2021/09/20 10:38:19;;;;;;;25.35;14.18;;;;;;;26.84;30.84;101937.81;5084166;28;20060;-67
2021/09/20 10:41:03;;;;;;;25.17;13.80;;;;;;;27.76;30.78;101937.88;5020097;28;20044;-67
2021/09/20 10:43:29;;;;;;;24.13;13.35;;;;;;;27.83;28.47;101936.59;5022007;28;20038;-68
2021/09/20 10:45:54;;;;;;;24.23;13.63;;;;;;;28.05;28.59;101942.78;5026772;28;20042;-68
2021/09/20 10:48:27;;;;;;;24.92;13.60;;;;;;;28.01;28.60;101939.34;5022508;28;20021;-68
2021/09/20 10:51:17;;;;;;;24.00;13.05;;;;;;;27.31;29.38;101947.34;5022530;28;20030;-67
2021/09/20 10:53:43;;;;;;;24.08;12.20;;;;;;;27.37;29.54;101940.78;5025239;28;20033;-69
2021/09/20 10:56:15;;;;;;;25.73;12.18;;;;;;;26.37;30.47;101944.47;5026396;28;20037;-69
2021/09/20 10:58:52;;;;;;;23.42;12.23;;;;;;;27.04;31.44;101949.56;5028163;28;20060;-69
2021/09/20 11:01:19;;;;;;;23.15;11.82;;;;;;;28.18;28.05;101941.19;5022382;28;20137;-66
2021/09/20 11:03:51;;;;;;;23.33;12.13;;;;;;;28.23;27.68;101944.53;5027450;28;20116;-67
2021/09/20 11:06:17;;;;;;;23.85;11.85;;;;;;;28.37;26.76;101941.09;5024205;28;20030;-67
2021/09/20 11:08:43;;;;;;;22.58;11.93;;;;;;;28.56;27.29;101934.63;5026667;28;20542;-66
2021/09/20 11:11:45;;;;;;;22.65;11.57;;;;;;;29.14;28.25;101947.75;5024557;28;20447;-67